sensor_id;sensor_type;location;lat;lon;timestamp;P1;durP1;ratioP1;P2;durP2;ratioP2
10132;SDS011;5106;50.926;7.080;2024-03-23T00:54:14;19.07;;;8.60;;
10132;SDS011;5106;50.926;7.080;2024-03-23T00:56:40;18.13;;;8.67;;
10132;SDS011;5106;50.926;7.080;2024-03-23T00:59:06;13.30;;;8.43;;
10132;SDS011;5106;50.926;7.080;2024-03-23T01:01:31;21.50;;;9.07;;
10132;SDS011;5106;50.926;7.080;2024-03-23T01:03:57;16.83;;;8.53;;
10132;SDS011;5106;50.926;7.080;2024-03-23T01:06:22;17.47;;;7.77;;
10132;SDS011;5106;50.926;7.080;2024-03-23T01:08:48;18.10;;;7.70;;
10132;SDS011;5106;50.926;7.080;2024-03-23T01:11:13;16.87;;;7.70;;
10132;SDS011;5106;50.926;7.080;2024-03-23T01:13:39;14.50;;;7.03;;
10132;SDS011;5106;50.926;7.080;2024-03-23T01:16:05;13.83;;;7.37;;
10132;SDS011;5106;50.926;7.080;2024-03-23T01:18:30;14.57;;;7.27;;
10132;SDS011;5106;50.926;7.080;2024-03-23T01:20:56;16.80;;;7.13;;
10132;SDS011;5106;50.926;7.080;2024-03-23T01:23:21;15.00;;;7.43;;
10132;SDS011;5106;50.926;7.080;2024-03-23T01:25:53;16.00;;;7.90;;
10132;SDS011;5106;50.926;7.080;2024-03-23T01:28:20;16.33;;;7.03;;
10132;SDS011;5106;50.926;7.080;2024-03-23T01:30:46;16.40;;;7.63;;
10132;SDS011;5106;50.926;7.080;2024-03-23T01:33:12;14.73;;;7.80;;
10132;SDS011;5106;50.926;7.080;2024-03-23T01:35:37;16.43;;;7.37;;
10132;SDS011;5106;50.926;7.080;2024-03-23T01:38:03;18.00;;;7.93;;
10132;SDS011;5106;50.926;7.080;2024-03-23T01:40:29;15.50;;;6.93;;
10132;SDS011;5106;50.926;7.080;2024-03-23T01:45:23;11.17;;;5.73;;
10132;SDS011;5106;50.926;7.080;2024-03-23T01:47:49;9.17;;;4.07;;
10132;SDS011;5106;50.926;7.080;2024-03-23T01:50:16;10.60;;;4.50;;
10132;SDS011;5106;50.926;7.080;2024-03-23T01:52:42;8.23;;;3.57;;
10132;SDS011;5106;50.926;7.080;2024-03-23T01:55:08;6.93;;;3.63;;
10132;SDS011;5106;50.926;7.080;2024-03-23T01:57:33;7.53;;;3.50;;
10132;SDS011;5106;50.926;7.080;2024-03-23T01:59:59;10.63;;;3.37;;
10132;SDS011;5106;50.926;7.080;2024-03-23T02:02:25;5.17;;;2.93;;
10132;SDS011;5106;50.926;7.080;2024-03-23T02:04:50;6.03;;;2.60;;
10132;SDS011;5106;50.926;7.080;2024-03-23T02:07:16;10.73;;;2.80;;
10132;SDS011;5106;50.926;7.080;2024-03-23T02:09:42;7.17;;;2.70;;
10132;SDS011;5106;50.926;7.080;2024-03-23T02:12:08;6.23;;;2.60;;
10132;SDS011;5106;50.926;7.080;2024-03-23T02:14:34;7.00;;;2.97;;
10132;SDS011;5106;50.926;7.080;2024-03-23T02:17:00;6.90;;;3.13;;
10132;SDS011;5106;50.926;7.080;2024-03-23T02:19:25;5.47;;;2.67;;
10132;SDS011;5106;50.926;7.080;2024-03-23T02:21:51;7.90;;;2.87;;
10132;SDS011;5106;50.926;7.080;2024-03-23T02:24:16;7.27;;;2.83;;
10132;SDS011;5106;50.926;7.080;2024-03-23T02:26:42;7.47;;;2.83;;
10132;SDS011;5106;50.926;7.080;2024-03-23T02:29:07;5.10;;;2.40;;
10132;SDS011;5106;50.926;7.080;2024-03-23T02:31:34;7.70;;;2.90;;
10132;SDS011;5106;50.926;7.080;2024-03-23T02:34:00;9.13;;;3.20;;
10132;SDS011;5106;50.926;7.080;2024-03-23T02:36:25;9.17;;;3.07;;
10132;SDS011;5106;50.926;7.080;2024-03-23T02:38:51;8.53;;;2.60;;
10132;SDS011;5106;50.926;7.080;2024-03-23T02:41:17;9.07;;;3.40;;
10132;SDS011;5106;50.926;7.080;2024-03-23T02:43:48;9.03;;;2.90;;
10132;SDS011;5106;50.926;7.080;2024-03-23T02:46:17;8.13;;;3.20;;
10132;SDS011;5106;50.926;7.080;2024-03-23T02:48:42;9.47;;;2.70;;
10132;SDS011;5106;50.926;7.080;2024-03-23T02:51:08;6.37;;;2.80;;
10132;SDS011;5106;50.926;7.080;2024-03-23T02:53:34;8.30;;;3.43;;
10132;SDS011;5106;50.926;7.080;2024-03-23T02:56:00;6.50;;;3.20;;
10132;SDS011;5106;50.926;7.080;2024-03-23T02:58:25;8.87;;;3.70;;
10132;SDS011;5106;50.926;7.080;2024-03-23T03:00:51;8.10;;;3.97;;
10132;SDS011;5106;50.926;7.080;2024-03-23T03:03:17;8.50;;;3.60;;
10132;SDS011;5106;50.926;7.080;2024-03-23T03:05:42;9.97;;;3.77;;
10132;SDS011;5106;50.926;7.080;2024-03-23T03:08:08;5.47;;;2.93;;
10132;SDS011;5106;50.926;7.080;2024-03-23T03:10:33;8.10;;;3.40;;
10132;SDS011;5106;50.926;7.080;2024-03-23T03:13:01;8.97;;;3.23;;
10132;SDS011;5106;50.926;7.080;2024-03-23T03:15:27;5.37;;;2.60;;
10132;SDS011;5106;50.926;7.080;2024-03-23T03:17:52;7.87;;;2.60;;
10132;SDS011;5106;50.926;7.080;2024-03-23T03:20:18;9.47;;;3.20;;
10132;SDS011;5106;50.926;7.080;2024-03-23T03:22:44;5.67;;;2.93;;
10132;SDS011;5106;50.926;7.080;2024-03-23T03:25:09;7.23;;;3.20;;
10132;SDS011;5106;50.926;7.080;2024-03-23T03:27:35;10.23;;;2.90;;
10132;SDS011;5106;50.926;7.080;2024-03-23T03:30:00;10.27;;;3.23;;
10132;SDS011;5106;50.926;7.080;2024-03-23T03:32:30;9.37;;;3.07;;
10132;SDS011;5106;50.926;7.080;2024-03-23T03:34:57;7.53;;;2.80;;
10132;SDS011;5106;50.926;7.080;2024-03-23T03:37:22;8.00;;;3.13;;
10132;SDS011;5106;50.926;7.080;2024-03-23T03:39:48;12.40;;;3.60;;
10132;SDS011;5106;50.926;7.080;2024-03-23T03:42:14;5.87;;;3.27;;
10132;SDS011;5106;50.926;7.080;2024-03-23T03:44:39;6.50;;;3.00;;
10132;SDS011;5106;50.926;7.080;2024-03-23T03:47:05;9.83;;;3.27;;
10132;SDS011;5106;50.926;7.080;2024-03-23T03:49:31;7.47;;;3.00;;
10132;SDS011;5106;50.926;7.080;2024-03-23T03:51:57;10.83;;;3.50;;
10132;SDS011;5106;50.926;7.080;2024-03-23T03:54:22;8.27;;;2.97;;
10132;SDS011;5106;50.926;7.080;2024-03-23T03:56:48;7.03;;;2.87;;
10132;SDS011;5106;50.926;7.080;2024-03-23T03:59:14;10.83;;;2.73;;
10132;SDS011;5106;50.926;7.080;2024-03-23T04:01:40;9.00;;;2.60;;
10132;SDS011;5106;50.926;7.080;2024-03-23T04:04:06;9.27;;;3.00;;
10132;SDS011;5106;50.926;7.080;2024-03-23T04:06:32;6.23;;;2.70;;
10132;SDS011;5106;50.926;7.080;2024-03-23T04:08:58;9.03;;;3.30;;
10132;SDS011;5106;50.926;7.080;2024-03-23T04:11:24;6.30;;;2.70;;
10132;SDS011;5106;50.926;7.080;2024-03-23T04:13:49;10.73;;;2.93;;
10132;SDS011;5106;50.926;7.080;2024-03-23T04:16:26;8.43;;;3.07;;
10132;SDS011;5106;50.926;7.080;2024-03-23T04:18:52;7.13;;;2.70;;
10132;SDS011;5106;50.926;7.080;2024-03-23T04:21:18;10.63;;;2.80;;
10132;SDS011;5106;50.926;7.080;2024-03-23T04:23:43;9.67;;;3.03;;
10132;SDS011;5106;50.926;7.080;2024-03-23T04:26:09;7.17;;;2.40;;
10132;SDS011;5106;50.926;7.080;2024-03-23T04:28:34;7.23;;;2.80;;
10132;SDS011;5106;50.926;7.080;2024-03-23T04:31:03;11.23;;;2.77;;
10132;SDS011;5106;50.926;7.080;2024-03-23T04:33:29;8.20;;;2.90;;
10132;SDS011;5106;50.926;7.080;2024-03-23T04:35:55;9.30;;;2.80;;
10132;SDS011;5106;50.926;7.080;2024-03-23T04:38:20;7.57;;;2.73;;
10132;SDS011;5106;50.926;7.080;2024-03-23T04:40:53;7.13;;;2.70;;
10132;SDS011;5106;50.926;7.080;2024-03-23T04:43:22;7.70;;;2.70;;
10132;SDS011;5106;50.926;7.080;2024-03-23T04:45:48;6.67;;;2.80;;
10132;SDS011;5106;50.926;7.080;2024-03-23T04:48:13;8.63;;;2.77;;
10132;SDS011;5106;50.926;7.080;2024-03-23T04:50:39;7.77;;;2.83;;
10132;SDS011;5106;50.926;7.080;2024-03-23T04:53:06;8.03;;;2.63;;
10132;SDS011;5106;50.926;7.080;2024-03-23T04:55:32;9.43;;;2.10;;
10132;SDS011;5106;50.926;7.080;2024-03-23T04:57:57;9.67;;;2.77;;
10132;SDS011;5106;50.926;7.080;2024-03-23T05:00:23;8.50;;;1.93;;
10132;SDS011;5106;50.926;7.080;2024-03-23T05:02:48;6.67;;;1.87;;
10132;SDS011;5106;50.926;7.080;2024-03-23T05:05:14;11.77;;;3.13;;
10132;SDS011;5106;50.926;7.080;2024-03-23T05:07:39;11.57;;;2.93;;
10132;SDS011;5106;50.926;7.080;2024-03-23T05:10:06;6.53;;;1.90;;
10132;SDS011;5106;50.926;7.080;2024-03-23T05:12:35;8.00;;;1.97;;
10132;SDS011;5106;50.926;7.080;2024-03-23T05:15:01;9.03;;;2.40;;
10132;SDS011;5106;50.926;7.080;2024-03-23T05:17:28;11.07;;;2.50;;
10132;SDS011;5106;50.926;7.080;2024-03-23T05:19:53;6.77;;;2.37;;
10132;SDS011;5106;50.926;7.080;2024-03-23T05:22:19;7.33;;;2.67;;
10132;SDS011;5106;50.926;7.080;2024-03-23T05:24:45;10.47;;;2.03;;
10132;SDS011;5106;50.926;7.080;2024-03-23T05:27:10;7.17;;;2.17;;
10132;SDS011;5106;50.926;7.080;2024-03-23T05:29:36;9.80;;;2.60;;
10132;SDS011;5106;50.926;7.080;2024-03-23T05:32:02;12.10;;;2.37;;
10132;SDS011;5106;50.926;7.080;2024-03-23T05:34:27;8.80;;;2.30;;
10132;SDS011;5106;50.926;7.080;2024-03-23T05:36:54;6.27;;;2.00;;
10132;SDS011;5106;50.926;7.080;2024-03-23T05:39:19;8.60;;;2.93;;
10132;SDS011;5106;50.926;7.080;2024-03-23T05:41:47;9.67;;;2.53;;
10132;SDS011;5106;50.926;7.080;2024-03-23T05:44:13;10.00;;;2.70;;
10132;SDS011;5106;50.926;7.080;2024-03-23T05:46:40;8.10;;;2.70;;
10132;SDS011;5106;50.926;7.080;2024-03-23T05:49:06;8.43;;;2.70;;
10132;SDS011;5106;50.926;7.080;2024-03-23T05:51:31;7.47;;;2.50;;
10132;SDS011;5106;50.926;7.080;2024-03-23T05:53:57;8.30;;;2.33;;
10132;SDS011;5106;50.926;7.080;2024-03-23T05:56:22;10.40;;;2.10;;
10132;SDS011;5106;50.926;7.080;2024-03-23T05:58:48;6.30;;;2.60;;
10132;SDS011;5106;50.926;7.080;2024-03-23T06:01:13;9.03;;;2.87;;
10132;SDS011;5106;50.926;7.080;2024-03-23T06:03:39;7.83;;;2.50;;
10132;SDS011;5106;50.926;7.080;2024-03-23T06:06:04;9.43;;;3.07;;
10132;SDS011;5106;50.926;7.080;2024-03-23T06:08:35;7.40;;;2.47;;
10132;SDS011;5106;50.926;7.080;2024-03-23T06:11:01;9.63;;;3.07;;
10132;SDS011;5106;50.926;7.080;2024-03-23T06:13:26;10.67;;;2.97;;
10132;SDS011;5106;50.926;7.080;2024-03-23T06:15:54;7.17;;;2.73;;
10132;SDS011;5106;50.926;7.080;2024-03-23T06:18:20;10.77;;;3.37;;
10132;SDS011;5106;50.926;7.080;2024-03-23T06:20:46;11.73;;;3.23;;
10132;SDS011;5106;50.926;7.080;2024-03-23T06:23:11;9.40;;;3.20;;
10132;SDS011;5106;50.926;7.080;2024-03-23T06:25:38;10.53;;;3.17;;
10132;SDS011;5106;50.926;7.080;2024-03-23T06:28:03;9.77;;;3.53;;
10132;SDS011;5106;50.926;7.080;2024-03-23T06:30:29;10.93;;;3.20;;
10132;SDS011;5106;50.926;7.080;2024-03-23T06:32:57;10.33;;;3.87;;
10132;SDS011;5106;50.926;7.080;2024-03-23T06:35:22;10.07;;;3.10;;
10132;SDS011;5106;50.926;7.080;2024-03-23T06:37:48;7.77;;;3.90;;
10132;SDS011;5106;50.926;7.080;2024-03-23T06:40:14;10.57;;;3.77;;
10132;SDS011;5106;50.926;7.080;2024-03-23T06:42:39;7.20;;;3.40;;
10132;SDS011;5106;50.926;7.080;2024-03-23T06:45:05;7.73;;;2.80;;
10132;SDS011;5106;50.926;7.080;2024-03-23T06:47:31;10.07;;;3.57;;
10132;SDS011;5106;50.926;7.080;2024-03-23T06:49:57;7.63;;;3.00;;
10132;SDS011;5106;50.926;7.080;2024-03-23T06:52:22;9.70;;;3.83;;
10132;SDS011;5106;50.926;7.080;2024-03-23T06:54:48;9.47;;;3.67;;
10132;SDS011;5106;50.926;7.080;2024-03-23T06:57:14;11.47;;;3.20;;
10132;SDS011;5106;50.926;7.080;2024-03-23T06:59:39;11.33;;;2.80;;
10132;SDS011;5106;50.926;7.080;2024-03-23T07:02:08;6.60;;;2.40;;
10132;SDS011;5106;50.926;7.080;2024-03-23T07:04:33;7.57;;;3.10;;
10132;SDS011;5106;50.926;7.080;2024-03-23T07:06:59;11.57;;;3.20;;
10132;SDS011;5106;50.926;7.080;2024-03-23T07:09:26;7.90;;;3.33;;
10132;SDS011;5106;50.926;7.080;2024-03-23T07:11:58;9.27;;;3.40;;
10132;SDS011;5106;50.926;7.080;2024-03-23T07:14:24;8.43;;;3.03;;
10132;SDS011;5106;50.926;7.080;2024-03-23T07:16:49;10.33;;;3.47;;
10132;SDS011;5106;50.926;7.080;2024-03-23T07:19:16;9.00;;;3.50;;
10132;SDS011;5106;50.926;7.080;2024-03-23T07:21:42;9.43;;;3.23;;
10132;SDS011;5106;50.926;7.080;2024-03-23T07:24:08;10.93;;;3.20;;
10132;SDS011;5106;50.926;7.080;2024-03-23T07:26:34;7.67;;;3.30;;
10132;SDS011;5106;50.926;7.080;2024-03-23T07:29:00;10.70;;;3.63;;
10132;SDS011;5106;50.926;7.080;2024-03-23T07:31:25;11.40;;;3.83;;
10132;SDS011;5106;50.926;7.080;2024-03-23T07:33:51;7.57;;;3.63;;
10132;SDS011;5106;50.926;7.080;2024-03-23T07:36:16;13.03;;;4.20;;
10132;SDS011;5106;50.926;7.080;2024-03-23T07:38:42;9.97;;;4.43;;
10132;SDS011;5106;50.926;7.080;2024-03-23T07:41:12;10.13;;;4.23;;
10132;SDS011;5106;50.926;7.080;2024-03-23T07:43:46;11.57;;;4.20;;
10132;SDS011;5106;50.926;7.080;2024-03-23T07:46:12;9.37;;;4.10;;
10132;SDS011;5106;50.926;7.080;2024-03-23T07:48:39;11.23;;;4.50;;
10132;SDS011;5106;50.926;7.080;2024-03-23T07:53:43;7.00;;;4.73;;
10132;SDS011;5106;50.926;7.080;2024-03-23T07:56:10;10.30;;;4.33;;
10132;SDS011;5106;50.926;7.080;2024-03-23T07:58:36;12.83;;;4.63;;
10132;SDS011;5106;50.926;7.080;2024-03-23T08:01:05;9.60;;;4.53;;
10132;SDS011;5106;50.926;7.080;2024-03-23T08:03:35;11.43;;;5.10;;
10132;SDS011;5106;50.926;7.080;2024-03-23T08:06:11;11.67;;;5.23;;
10132;SDS011;5106;50.926;7.080;2024-03-23T08:08:41;13.80;;;4.87;;
10132;SDS011;5106;50.926;7.080;2024-03-23T08:11:08;13.13;;;5.30;;
10132;SDS011;5106;50.926;7.080;2024-03-23T08:13:34;10.70;;;5.47;;
10132;SDS011;5106;50.926;7.080;2024-03-23T08:16:01;6.97;;;4.40;;
10132;SDS011;5106;50.926;7.080;2024-03-23T08:18:28;12.53;;;5.57;;
10132;SDS011;5106;50.926;7.080;2024-03-23T08:20:57;9.73;;;4.77;;
10132;SDS011;5106;50.926;7.080;2024-03-23T08:23:26;9.30;;;4.87;;
10132;SDS011;5106;50.926;7.080;2024-03-23T08:25:59;8.77;;;5.23;;
10132;SDS011;5106;50.926;7.080;2024-03-23T08:28:26;6.87;;;4.50;;
10132;SDS011;5106;50.926;7.080;2024-03-23T08:30:52;8.57;;;4.10;;
10132;SDS011;5106;50.926;7.080;2024-03-23T08:33:19;10.97;;;4.60;;
10132;SDS011;5106;50.926;7.080;2024-03-23T08:35:57;9.93;;;4.20;;
10132;SDS011;5106;50.926;7.080;2024-03-23T08:38:24;7.37;;;3.90;;
10132;SDS011;5106;50.926;7.080;2024-03-23T08:40:57;5.60;;;3.00;;
10132;SDS011;5106;50.926;7.080;2024-03-23T08:43:23;8.17;;;2.80;;
10132;SDS011;5106;50.926;7.080;2024-03-23T08:45:49;6.00;;;2.53;;
10132;SDS011;5106;50.926;7.080;2024-03-23T08:48:15;10.37;;;3.40;;
10132;SDS011;5106;50.926;7.080;2024-03-23T08:50:41;5.73;;;3.00;;
10132;SDS011;5106;50.926;7.080;2024-03-23T08:53:06;7.37;;;3.20;;
10132;SDS011;5106;50.926;7.080;2024-03-23T08:55:33;7.37;;;3.10;;
10132;SDS011;5106;50.926;7.080;2024-03-23T08:57:58;8.03;;;3.43;;
10132;SDS011;5106;50.926;7.080;2024-03-23T09:00:25;8.67;;;3.37;;
10132;SDS011;5106;50.926;7.080;2024-03-23T09:02:51;9.70;;;4.00;;
10132;SDS011;5106;50.926;7.080;2024-03-23T09:05:16;8.70;;;3.67;;
10132;SDS011;5106;50.926;7.080;2024-03-23T09:07:42;8.10;;;3.73;;
10132;SDS011;5106;50.926;7.080;2024-03-23T09:10:07;8.63;;;4.00;;
10132;SDS011;5106;50.926;7.080;2024-03-23T09:12:33;13.60;;;4.10;;
10132;SDS011;5106;50.926;7.080;2024-03-23T09:14:59;10.17;;;4.37;;
10132;SDS011;5106;50.926;7.080;2024-03-23T09:17:24;11.60;;;4.60;;
10132;SDS011;5106;50.926;7.080;2024-03-23T09:19:50;8.57;;;4.27;;
10132;SDS011;5106;50.926;7.080;2024-03-23T09:22:15;7.20;;;3.67;;
10132;SDS011;5106;50.926;7.080;2024-03-23T09:24:41;10.20;;;4.23;;
10132;SDS011;5106;50.926;7.080;2024-03-23T09:27:07;12.57;;;4.53;;
10132;SDS011;5106;50.926;7.080;2024-03-23T09:29:33;9.00;;;3.70;;
10132;SDS011;5106;50.926;7.080;2024-03-23T09:31:58;9.47;;;3.80;;
10132;SDS011;5106;50.926;7.080;2024-03-23T09:34:24;8.60;;;3.67;;
10132;SDS011;5106;50.926;7.080;2024-03-23T09:36:53;10.20;;;3.87;;
10132;SDS011;5106;50.926;7.080;2024-03-23T09:39:18;7.17;;;3.23;;
10132;SDS011;5106;50.926;7.080;2024-03-23T09:41:44;9.33;;;3.60;;
10132;SDS011;5106;50.926;7.080;2024-03-23T09:44:10;10.47;;;3.80;;
10132;SDS011;5106;50.926;7.080;2024-03-23T09:46:36;9.37;;;3.77;;
10132;SDS011;5106;50.926;7.080;2024-03-23T09:49:03;6.57;;;2.73;;
10132;SDS011;5106;50.926;7.080;2024-03-23T09:51:34;8.10;;;4.00;;
10132;SDS011;5106;50.926;7.080;2024-03-23T09:54:01;12.27;;;3.60;;
10132;SDS011;5106;50.926;7.080;2024-03-23T09:56:26;9.37;;;2.33;;
10132;SDS011;5106;50.926;7.080;2024-03-23T09:58:52;7.60;;;2.63;;
10132;SDS011;5106;50.926;7.080;2024-03-23T10:01:29;8.23;;;2.33;;
10132;SDS011;5106;50.926;7.080;2024-03-23T10:03:55;6.03;;;2.50;;
10132;SDS011;5106;50.926;7.080;2024-03-23T10:06:21;8.70;;;2.97;;
10132;SDS011;5106;50.926;7.080;2024-03-23T10:08:49;7.97;;;2.90;;
10132;SDS011;5106;50.926;7.080;2024-03-23T10:11:16;4.33;;;2.20;;
10132;SDS011;5106;50.926;7.080;2024-03-23T10:13:42;8.57;;;2.25;;
10132;SDS011;5106;50.926;7.080;2024-03-23T10:16:09;7.13;;;2.47;;
10132;SDS011;5106;50.926;7.080;2024-03-23T10:18:41;7.05;;;2.10;;
10132;SDS011;5106;50.926;7.080;2024-03-23T10:23:36;5.03;;;1.83;;
10132;SDS011;5106;50.926;7.080;2024-03-23T10:26:22;3.47;;;1.70;;
10132;SDS011;5106;50.926;7.080;2024-03-23T10:28:59;5.13;;;1.60;;
10132;SDS011;5106;50.926;7.080;2024-03-23T10:31:26;3.17;;;1.50;;
10132;SDS011;5106;50.926;7.080;2024-03-23T10:33:56;6.30;;;1.80;;
10132;SDS011;5106;50.926;7.080;2024-03-23T10:36:22;6.37;;;1.60;;
10132;SDS011;5106;50.926;7.080;2024-03-23T10:38:54;6.53;;;1.53;;
10132;SDS011;5106;50.926;7.080;2024-03-23T10:41:20;3.60;;;1.37;;
10132;SDS011;5106;50.926;7.080;2024-03-23T10:43:47;4.13;;;1.63;;
10132;SDS011;5106;50.926;7.080;2024-03-23T10:46:13;2.27;;;1.10;;
10132;SDS011;5106;50.926;7.080;2024-03-23T10:48:40;2.17;;;1.20;;
10132;SDS011;5106;50.926;7.080;2024-03-23T10:51:06;2.10;;;1.00;;
10132;SDS011;5106;50.926;7.080;2024-03-23T10:53:33;2.40;;;1.00;;
10132;SDS011;5106;50.926;7.080;2024-03-23T10:55:59;2.53;;;1.13;;
10132;SDS011;5106;50.926;7.080;2024-03-23T10:58:33;2.80;;;1.10;;
10132;SDS011;5106;50.926;7.080;2024-03-23T11:01:05;2.60;;;1.30;;
10132;SDS011;5106;50.926;7.080;2024-03-23T11:06:06;4.70;;;1.40;;
10132;SDS011;5106;50.926;7.080;2024-03-23T11:08:36;2.47;;;1.33;;
10132;SDS011;5106;50.926;7.080;2024-03-23T11:11:16;6.13;;;1.93;;
10132;SDS011;5106;50.926;7.080;2024-03-23T11:13:43;3.40;;;1.50;;
10132;SDS011;5106;50.926;7.080;2024-03-23T11:18:40;4.83;;;1.97;;
10132;SDS011;5106;50.926;7.080;2024-03-23T11:21:07;6.17;;;1.77;;
10132;SDS011;5106;50.926;7.080;2024-03-23T11:23:33;4.17;;;1.73;;
10132;SDS011;5106;50.926;7.080;2024-03-23T11:25:58;4.70;;;2.00;;
10132;SDS011;5106;50.926;7.080;2024-03-23T11:28:24;6.87;;;1.87;;
10132;SDS011;5106;50.926;7.080;2024-03-23T11:30:49;4.67;;;1.80;;
10132;SDS011;5106;50.926;7.080;2024-03-23T11:33:15;4.13;;;1.83;;
10132;SDS011;5106;50.926;7.080;2024-03-23T11:35:41;3.70;;;1.43;;
10132;SDS011;5106;50.926;7.080;2024-03-23T11:38:13;7.63;;;1.80;;
10132;SDS011;5106;50.926;7.080;2024-03-23T11:43:09;3.27;;;1.30;;
10132;SDS011;5106;50.926;7.080;2024-03-23T11:45:44;2.73;;;1.30;;
10132;SDS011;5106;50.926;7.080;2024-03-23T11:48:14;3.27;;;1.23;;
10132;SDS011;5106;50.926;7.080;2024-03-23T11:50:49;3.90;;;1.33;;
10132;SDS011;5106;50.926;7.080;2024-03-23T11:53:19;3.63;;;1.50;;
10132;SDS011;5106;50.926;7.080;2024-03-23T11:55:48;3.23;;;1.20;;
10132;SDS011;5106;50.926;7.080;2024-03-23T11:58:14;1.70;;;1.00;;
10132;SDS011;5106;50.926;7.080;2024-03-23T12:00:41;3.67;;;1.13;;
10132;SDS011;5106;50.926;7.080;2024-03-23T12:03:07;5.13;;;1.23;;
10132;SDS011;5106;50.926;7.080;2024-03-23T12:05:35;2.53;;;0.90;;
10132;SDS011;5106;50.926;7.080;2024-03-23T12:10:49;4.03;;;1.10;;
10132;SDS011;5106;50.926;7.080;2024-03-23T12:13:19;2.77;;;1.23;;
10132;SDS011;5106;50.926;7.080;2024-03-23T12:15:50;3.57;;;1.40;;
10132;SDS011;5106;50.926;7.080;2024-03-23T12:18:16;3.80;;;1.30;;
10132;SDS011;5106;50.926;7.080;2024-03-23T12:20:42;2.33;;;0.97;;
10132;SDS011;5106;50.926;7.080;2024-03-23T12:23:11;3.60;;;1.03;;
10132;SDS011;5106;50.926;7.080;2024-03-23T12:25:40;3.17;;;1.10;;
10132;SDS011;5106;50.926;7.080;2024-03-23T12:28:06;2.17;;;1.10;;
10132;SDS011;5106;50.926;7.080;2024-03-23T12:30:35;1.67;;;1.07;;
10132;SDS011;5106;50.926;7.080;2024-03-23T12:33:04;2.40;;;1.10;;
10132;SDS011;5106;50.926;7.080;2024-03-23T12:35:30;2.87;;;1.80;;
10132;SDS011;5106;50.926;7.080;2024-03-23T12:37:56;4.47;;;2.17;;
10132;SDS011;5106;50.926;7.080;2024-03-23T12:40:23;2.40;;;1.10;;
10132;SDS011;5106;50.926;7.080;2024-03-23T12:42:49;1.10;;;1.00;;
10132;SDS011;5106;50.926;7.080;2024-03-23T12:45:14;1.20;;;0.80;;
10132;SDS011;5106;50.926;7.080;2024-03-23T12:47:40;1.83;;;0.70;;
10132;SDS011;5106;50.926;7.080;2024-03-23T12:50:06;2.30;;;0.90;;
10132;SDS011;5106;50.926;7.080;2024-03-23T12:52:34;3.87;;;1.30;;
10132;SDS011;5106;50.926;7.080;2024-03-23T12:55:01;1.23;;;0.83;;
10132;SDS011;5106;50.926;7.080;2024-03-23T12:57:27;1.03;;;0.80;;
10132;SDS011;5106;50.926;7.080;2024-03-23T12:59:53;1.83;;;0.80;;
10132;SDS011;5106;50.926;7.080;2024-03-23T13:02:22;1.80;;;0.90;;
10132;SDS011;5106;50.926;7.080;2024-03-23T13:04:51;1.67;;;0.87;;
10132;SDS011;5106;50.926;7.080;2024-03-23T13:07:18;3.90;;;0.73;;
10132;SDS011;5106;50.926;7.080;2024-03-23T13:09:44;1.70;;;0.60;;
10132;SDS011;5106;50.926;7.080;2024-03-23T13:12:10;3.07;;;0.97;;
10132;SDS011;5106;50.926;7.080;2024-03-23T13:14:37;0.97;;;0.53;;
10132;SDS011;5106;50.926;7.080;2024-03-23T13:17:03;0.83;;;0.60;;
10132;SDS011;5106;50.926;7.080;2024-03-23T13:19:29;1.53;;;0.80;;
10132;SDS011;5106;50.926;7.080;2024-03-23T13:21:59;3.17;;;1.20;;
10132;SDS011;5106;50.926;7.080;2024-03-23T13:24:26;3.17;;;1.60;;
10132;SDS011;5106;50.926;7.080;2024-03-23T13:26:52;2.47;;;1.07;;
10132;SDS011;5106;50.926;7.080;2024-03-23T13:29:19;2.27;;;1.10;;
10132;SDS011;5106;50.926;7.080;2024-03-23T13:31:46;1.83;;;1.17;;
10132;SDS011;5106;50.926;7.080;2024-03-23T13:34:12;1.53;;;1.00;;
10132;SDS011;5106;50.926;7.080;2024-03-23T13:36:41;2.67;;;1.00;;
10132;SDS011;5106;50.926;7.080;2024-03-23T13:39:08;2.53;;;1.10;;
10132;SDS011;5106;50.926;7.080;2024-03-23T13:41:43;9.80;;;1.83;;
10132;SDS011;5106;50.926;7.080;2024-03-23T13:44:10;2.07;;;1.20;;
10132;SDS011;5106;50.926;7.080;2024-03-23T13:46:36;1.73;;;1.10;;
10132;SDS011;5106;50.926;7.080;2024-03-23T13:49:02;1.73;;;1.20;;
10132;SDS011;5106;50.926;7.080;2024-03-23T13:51:28;3.10;;;1.60;;
10132;SDS011;5106;50.926;7.080;2024-03-23T13:53:54;4.47;;;1.70;;
10132;SDS011;5106;50.926;7.080;2024-03-23T13:56:30;6.37;;;2.00;;
10132;SDS011;5106;50.926;7.080;2024-03-23T13:58:55;5.53;;;1.87;;
10132;SDS011;5106;50.926;7.080;2024-03-23T14:01:21;7.67;;;2.10;;
10132;SDS011;5106;50.926;7.080;2024-03-23T14:03:47;3.30;;;1.47;;
10132;SDS011;5106;50.926;7.080;2024-03-23T14:06:13;2.87;;;1.23;;
10132;SDS011;5106;50.926;7.080;2024-03-23T14:08:39;5.63;;;1.87;;
10132;SDS011;5106;50.926;7.080;2024-03-23T14:11:10;4.53;;;1.67;;
10132;SDS011;5106;50.926;7.080;2024-03-23T14:13:35;1.77;;;1.20;;
10132;SDS011;5106;50.926;7.080;2024-03-23T14:16:01;2.33;;;1.10;;
10132;SDS011;5106;50.926;7.080;2024-03-23T14:18:27;3.20;;;0.87;;
10132;SDS011;5106;50.926;7.080;2024-03-23T14:20:56;1.80;;;0.80;;
10132;SDS011;5106;50.926;7.080;2024-03-23T14:23:26;3.57;;;0.90;;
10132;SDS011;5106;50.926;7.080;2024-03-23T14:25:57;3.20;;;1.10;;
10132;SDS011;5106;50.926;7.080;2024-03-23T14:28:23;0.97;;;0.80;;
10132;SDS011;5106;50.926;7.080;2024-03-23T14:30:49;3.00;;;0.90;;
10132;SDS011;5106;50.926;7.080;2024-03-23T14:33:16;2.43;;;0.90;;
10132;SDS011;5106;50.926;7.080;2024-03-23T14:35:42;2.27;;;1.13;;
10132;SDS011;5106;50.926;7.080;2024-03-23T14:38:08;2.83;;;1.00;;
10132;SDS011;5106;50.926;7.080;2024-03-23T14:40:34;3.73;;;1.40;;
10132;SDS011;5106;50.926;7.080;2024-03-23T14:43:00;3.87;;;1.30;;
10132;SDS011;5106;50.926;7.080;2024-03-23T14:45:27;1.57;;;1.00;;
10132;SDS011;5106;50.926;7.080;2024-03-23T14:47:53;3.00;;;1.30;;
10132;SDS011;5106;50.926;7.080;2024-03-23T14:50:18;2.03;;;0.90;;
10132;SDS011;5106;50.926;7.080;2024-03-23T14:52:47;2.73;;;1.13;;
10132;SDS011;5106;50.926;7.080;2024-03-23T14:55:12;2.70;;;1.20;;
10132;SDS011;5106;50.926;7.080;2024-03-23T14:57:38;1.77;;;1.03;;
10132;SDS011;5106;50.926;7.080;2024-03-23T15:00:08;2.83;;;1.20;;
10132;SDS011;5106;50.926;7.080;2024-03-23T15:02:36;1.60;;;1.10;;
10132;SDS011;5106;50.926;7.080;2024-03-23T15:05:01;2.50;;;1.20;;
10132;SDS011;5106;50.926;7.080;2024-03-23T15:07:29;4.60;;;1.37;;
10132;SDS011;5106;50.926;7.080;2024-03-23T15:09:55;5.63;;;1.50;;
10132;SDS011;5106;50.926;7.080;2024-03-23T15:12:21;1.50;;;0.80;;
10132;SDS011;5106;50.926;7.080;2024-03-23T15:14:46;3.23;;;1.20;;
10132;SDS011;5106;50.926;7.080;2024-03-23T15:17:12;2.67;;;1.03;;
10132;SDS011;5106;50.926;7.080;2024-03-23T15:19:38;2.90;;;1.07;;
10132;SDS011;5106;50.926;7.080;2024-03-23T15:22:04;3.13;;;1.30;;
10132;SDS011;5106;50.926;7.080;2024-03-23T15:24:29;1.77;;;1.00;;
10132;SDS011;5106;50.926;7.080;2024-03-23T15:26:56;4.90;;;1.40;;
10132;SDS011;5106;50.926;7.080;2024-03-23T15:29:22;3.43;;;0.93;;
10132;SDS011;5106;50.926;7.080;2024-03-23T15:31:48;2.53;;;1.20;;
10132;SDS011;5106;50.926;7.080;2024-03-23T15:34:17;3.33;;;1.47;;
10132;SDS011;5106;50.926;7.080;2024-03-23T15:36:46;3.17;;;1.40;;
10132;SDS011;5106;50.926;7.080;2024-03-23T15:39:14;3.20;;;1.30;;
10132;SDS011;5106;50.926;7.080;2024-03-23T15:41:40;1.60;;;1.17;;
10132;SDS011;5106;50.926;7.080;2024-03-23T15:44:05;4.00;;;1.40;;
10132;SDS011;5106;50.926;7.080;2024-03-23T15:46:31;2.93;;;1.60;;
10132;SDS011;5106;50.926;7.080;2024-03-23T15:48:57;7.33;;;1.60;;
10132;SDS011;5106;50.926;7.080;2024-03-23T15:51:22;4.87;;;1.60;;
10132;SDS011;5106;50.926;7.080;2024-03-23T15:53:48;4.03;;;1.47;;
10132;SDS011;5106;50.926;7.080;2024-03-23T15:56:17;4.00;;;1.48;;
10132;SDS011;5106;50.926;7.080;2024-03-23T15:58:43;5.18;;;1.42;;
10132;SDS011;5106;50.926;7.080;2024-03-23T16:01:08;5.07;;;1.30;;
10132;SDS011;5106;50.926;7.080;2024-03-23T16:03:35;3.38;;;1.15;;
10132;SDS011;5106;50.926;7.080;2024-03-23T16:06:03;3.17;;;1.30;;